createdAt,value
2022-08-03T00:01:36.318Z,100324.72
2022-08-03T00:04:40.831Z,100322.50
2022-08-03T00:07:43.545Z,100318.37
2022-08-03T00:10:47.217Z,100321.41
2022-08-03T00:13:50.413Z,100328.34
2022-08-03T00:16:52.682Z,100313.59
2022-08-03T00:19:55.261Z,100321.41
2022-08-03T00:22:57.610Z,100330.72
2022-08-03T00:25:59.808Z,100324.13
2022-08-03T00:29:02.779Z,100329.81
2022-08-03T00:32:05.064Z,100329.31
2022-08-03T00:35:09.917Z,100326.22
2022-08-03T00:38:16.731Z,100329.06
2022-08-03T00:41:19.263Z,100339.50
2022-08-03T00:44:22.385Z,100337.44
2022-08-03T00:47:25.070Z,100339.44
2022-08-03T00:50:28.839Z,100341.66
2022-08-03T00:53:32.033Z,100340.91
2022-08-03T00:56:34.996Z,100342.03
2022-08-03T00:59:39.143Z,100342.97
2022-08-03T01:02:42.282Z,100345.28
2022-08-03T01:05:45.219Z,100342.63
2022-08-03T01:09:06.641Z,100343.97
2022-08-03T01:12:25.607Z,100346.88
2022-08-03T01:15:40.044Z,100342.91
2022-08-03T01:18:45.220Z,100343.72
2022-08-03T01:21:47.685Z,100349.56
2022-08-03T01:24:54.853Z,100345.78
2022-08-03T01:27:57.071Z,100348.94
2022-08-03T01:31:02.263Z,100348.72
2022-08-03T01:34:09.258Z,100353.38
2022-08-03T01:37:20.712Z,100349.59
2022-08-03T01:40:25.644Z,100349.44
2022-08-03T01:44:26.643Z,100349.75
2022-08-03T01:46:52.894Z,100345.63
2022-08-03T01:49:58.276Z,100348.44
2022-08-03T01:53:01.573Z,100347.00
2022-08-03T01:56:06.010Z,100337.94
2022-08-03T01:59:11.746Z,100345.72
2022-08-03T02:02:27.544Z,100344.22
2022-08-03T02:05:35.998Z,100343.56
2022-08-03T02:08:40.064Z,100342.75
2022-08-03T02:11:43.457Z,100342.63
2022-08-03T02:14:46.768Z,100344.75
2022-08-03T02:17:49.422Z,100344.56
2022-08-03T02:20:52.528Z,100350.56
2022-08-03T02:23:55.048Z,100340.75
2022-08-03T02:26:58.867Z,100345.25
2022-08-03T02:30:08.456Z,100338.78
2022-08-03T02:33:12.693Z,100340.56
2022-08-03T02:36:16.229Z,100346.72
2022-08-03T02:39:21.210Z,100343.91
2022-08-03T02:42:23.891Z,100350.69
2022-08-03T02:45:27.602Z,100341.78
2022-08-03T02:48:33.921Z,100348.06
2022-08-03T02:51:39.817Z,100353.19
2022-08-03T02:54:43.539Z,100346.88
2022-08-03T02:57:46.912Z,100348.06
2022-08-03T03:00:52.568Z,100343.28
2022-08-03T03:03:57.835Z,100347.97
2022-08-03T03:07:01.792Z,100350.09
2022-08-03T03:10:06.760Z,100349.97
2022-08-03T03:13:09.930Z,100342.00
2022-08-03T03:16:14.176Z,100343.62
2022-08-03T03:19:17.694Z,100342.47
2022-08-03T03:22:21.041Z,100345.00
2022-08-03T03:25:24.978Z,100345.16
2022-08-03T03:28:27.887Z,100348.97
2022-08-03T03:31:33.526Z,100346.81
2022-08-03T03:34:36.748Z,100350.81
2022-08-03T03:37:39.537Z,100344.38
2022-08-03T03:40:42.285Z,100354.78
2022-08-03T03:43:44.748Z,100351.78
2022-08-03T03:46:46.917Z,100347.16
2022-08-03T03:49:52.298Z,100350.62
2022-08-03T03:52:54.907Z,100352.13
2022-08-03T03:55:59.406Z,100355.44
2022-08-03T03:59:05.074Z,100357.41
2022-08-03T04:02:08.827Z,100355.41
2022-08-03T04:05:29.832Z,100354.25
2022-08-03T04:08:51.373Z,100363.19
2022-08-03T04:11:54.253Z,100359.37
2022-08-03T04:14:58.334Z,100364.34
2022-08-03T04:18:02.198Z,100367.31
2022-08-03T04:21:06.893Z,100373.75
2022-08-03T04:24:10.618Z,100373.41
2022-08-03T04:27:14.962Z,100385.66
2022-08-03T04:30:17.597Z,100376.19
2022-08-03T04:33:20.690Z,100375.63
2022-08-03T04:36:27.771Z,100378.41
2022-08-03T04:39:32.284Z,100380.66
2022-08-03T04:42:35.390Z,100390.88
2022-08-03T04:45:38.485Z,100392.16
2022-08-03T04:48:44.619Z,100399.84
2022-08-03T04:51:48.797Z,100389.84
2022-08-03T04:54:51.659Z,100397.72
2022-08-03T04:57:53.943Z,100402.31
2022-08-03T05:00:57.003Z,100414.94
2022-08-03T05:03:59.790Z,100413.41
2022-08-03T05:07:11.772Z,100415.63
2022-08-03T05:10:17.084Z,100423.00
2022-08-03T05:13:19.409Z,100415.56
2022-08-03T05:16:21.801Z,100419.03
2022-08-03T05:19:24.248Z,100426.66
2022-08-03T05:22:26.629Z,100424.44
2022-08-03T05:25:28.977Z,100426.47
2022-08-03T05:28:31.588Z,100436.69
2022-08-03T05:31:34.257Z,100434.47
2022-08-03T05:34:36.530Z,100436.31
2022-08-03T05:37:38.707Z,100440.25
2022-08-03T05:41:21.890Z,100438.72
2022-08-03T05:44:20.918Z,100435.38
2022-08-03T05:47:23.477Z,100440.06
2022-08-03T05:50:25.638Z,100443.31
2022-08-03T05:53:28.689Z,100451.88
2022-08-03T05:56:31.217Z,100454.00
2022-08-03T05:59:38.479Z,100449.94
2022-08-03T06:02:40.799Z,100462.25
2022-08-03T06:05:43.220Z,100459.91
2022-08-03T06:09:03.430Z,100461.22
2022-08-03T06:12:05.988Z,100457.78
2022-08-03T06:15:11.330Z,100464.66
2022-08-03T06:18:14.239Z,100465.50
2022-08-03T06:21:16.484Z,100463.34
2022-08-03T06:24:18.932Z,100462.16
2022-08-03T06:27:36.375Z,100461.97
2022-08-03T06:30:40.612Z,100464.53
2022-08-03T06:34:30.197Z,100470.31
2022-08-03T06:37:06.164Z,100470.25
2022-08-03T06:40:09.166Z,100472.38
2022-08-03T06:43:16.386Z,100471.28
2022-08-03T06:46:18.719Z,100470.53
2022-08-03T06:49:20.864Z,100480.03
2022-08-03T06:52:37.593Z,100477.16
2022-08-03T06:55:42.540Z,100473.91
2022-08-03T06:58:45.189Z,100474.94
2022-08-03T07:01:47.797Z,100484.03
2022-08-03T07:04:50.969Z,100481.16
2022-08-03T07:07:58.551Z,100486.25
2022-08-03T07:11:01.011Z,100488.75
2022-08-03T07:14:03.494Z,100479.28
2022-08-03T07:17:11.766Z,100485.00
2022-08-03T07:20:16.004Z,100480.84
2022-08-03T07:23:19.211Z,100492.09
2022-08-03T07:26:21.656Z,100490.59
2022-08-03T07:29:23.785Z,100487.66
2022-08-03T07:32:27.122Z,100489.34
2022-08-03T07:35:32.337Z,100493.09
2022-08-03T07:38:35.898Z,100499.06
2022-08-03T07:41:38.572Z,100503.53
2022-08-03T07:44:44.414Z,100494.94
2022-08-03T07:47:53.408Z,100495.41
2022-08-03T07:50:56.747Z,100507.16
2022-08-03T07:53:59.444Z,100496.88
2022-08-03T07:57:01.513Z,100500.63
2022-08-03T08:00:09.301Z,100498.47
2022-08-03T08:03:11.741Z,100499.13
2022-08-03T08:06:15.357Z,100503.78
2022-08-03T08:09:17.794Z,100498.44
2022-08-03T08:12:20.371Z,100495.31
2022-08-03T08:15:23.350Z,100497.41
2022-08-03T08:18:25.811Z,100491.16
2022-08-03T08:21:53.957Z,100487.34
2022-08-03T08:24:50.601Z,100485.84
2022-08-03T08:28:29.331Z,100497.06
2022-08-03T08:31:18.085Z,100488.97
2022-08-03T08:34:21.047Z,100488.13
2022-08-03T08:37:23.366Z,100482.50
2022-08-03T08:40:28.884Z,100486.62
2022-08-03T08:43:31.214Z,100483.88
2022-08-03T08:46:34.152Z,100484.34
2022-08-03T08:49:39.285Z,100473.91
2022-08-03T08:52:44.655Z,100478.47
2022-08-03T08:55:58.576Z,100469.38
2022-08-03T08:59:03.113Z,100472.41
2022-08-03T09:02:06.241Z,100473.91
2022-08-03T09:05:14.534Z,100475.09
2022-08-03T09:08:16.996Z,100467.28
2022-08-03T09:12:00.902Z,100467.13
2022-08-03T09:15:07.455Z,100461.50
2022-08-03T09:18:09.660Z,100460.56
2022-08-03T09:21:36.493Z,100465.28
2022-08-03T09:24:41.740Z,100468.06
2022-08-03T09:27:44.966Z,100461.63
2022-08-03T09:31:08.830Z,100464.28
2022-08-03T09:34:12.923Z,100449.44
2022-08-03T09:37:16.471Z,100457.03
2022-08-03T09:40:34.516Z,100454.09
2022-08-03T09:43:47.081Z,100452.34
2022-08-03T09:46:59.168Z,100458.78
2022-08-03T09:50:02.538Z,100436.31
2022-08-03T09:53:05.100Z,100439.97
2022-08-03T09:56:36.494Z,100440.56
2022-08-03T09:59:33.813Z,100442.97
2022-08-03T10:02:36.246Z,100436.03
2022-08-03T10:05:44.806Z,100438.69
2022-08-03T10:08:47.364Z,100433.09
2022-08-03T10:11:50.254Z,100427.75
2022-08-03T10:14:53.052Z,100428.34
2022-08-03T10:17:56.127Z,100426.50
2022-08-03T10:21:02.207Z,100425.28
2022-08-03T10:24:05.280Z,100427.25
2022-08-03T10:27:08.440Z,100417.31
2022-08-03T10:30:11.866Z,100410.13
2022-08-03T10:33:51.745Z,100416.78
2022-08-03T10:36:44.872Z,100410.81
2022-08-03T10:39:56.493Z,100418.94
2022-08-03T10:43:10.322Z,100409.25
2022-08-03T10:46:14.751Z,100404.75
2022-08-03T10:49:25.523Z,100408.25
2022-08-03T10:52:53.583Z,100399.44
2022-08-03T10:56:14.901Z,100392.28
2022-08-03T10:59:41.041Z,100387.53
2022-08-03T11:03:02.473Z,100390.09
2022-08-03T11:06:37.176Z,100374.00
2022-08-03T11:09:43.813Z,100378.56
2022-08-03T11:12:46.492Z,100372.66
2022-08-03T11:15:49.666Z,100367.66
2022-08-03T11:19:01.586Z,100364.78
2022-08-03T11:22:04.932Z,100363.97
2022-08-03T11:25:07.747Z,100364.81
2022-08-03T11:28:25.556Z,100358.19
2022-08-03T11:31:49.333Z,100361.97
2022-08-03T11:35:08.704Z,100356.00
2022-08-03T11:38:11.222Z,100350.66
2022-08-03T11:41:33.080Z,100349.63
2022-08-03T11:44:47.513Z,100346.34
2022-08-03T11:47:52.561Z,100349.19
2022-08-03T11:50:54.974Z,100346.47
2022-08-03T11:53:58.698Z,100339.00
2022-08-03T11:57:00.855Z,100343.09
2022-08-03T12:00:04.421Z,100337.81
2022-08-03T12:03:12.074Z,100336.34
2022-08-03T12:06:15.708Z,100333.97
2022-08-03T12:09:17.786Z,100330.53
2022-08-03T12:12:23.735Z,100334.22
2022-08-03T12:15:29.099Z,100328.97
2022-08-03T12:18:31.369Z,100323.97
2022-08-03T12:21:33.597Z,100326.06
2022-08-03T12:24:42.544Z,100326.00
2022-08-03T12:27:45.183Z,100317.38
2022-08-03T12:30:48.652Z,100320.28
2022-08-03T12:34:06.798Z,100315.84
2022-08-03T12:37:22.163Z,100308.34
2022-08-03T12:40:32.014Z,100308.84
2022-08-03T12:43:37.633Z,100309.81
2022-08-03T12:46:47.528Z,100310.34
2022-08-03T12:49:51.171Z,100309.31
2022-08-03T12:52:53.486Z,100293.44
2022-08-03T12:56:05.702Z,100293.09
2022-08-03T12:59:32.323Z,100288.50
2022-08-03T13:02:37.682Z,100299.91
2022-08-03T13:05:43.946Z,100289.56
2022-08-03T13:08:48.008Z,100290.69
2022-08-03T13:12:04.368Z,100283.47
2022-08-03T13:15:10.574Z,100275.66
2022-08-03T13:18:12.751Z,100273.84
2022-08-03T13:21:20.648Z,100277.63
2022-08-03T13:24:22.902Z,100268.38
2022-08-03T13:28:03.421Z,100271.03
2022-08-03T13:30:47.730Z,100271.13
2022-08-03T13:33:49.905Z,100273.75
2022-08-03T13:37:08.319Z,100268.81
2022-08-03T13:40:11.882Z,100259.28
2022-08-03T13:43:16.698Z,100263.38
2022-08-03T13:46:20.510Z,100260.94
2022-08-03T13:49:22.606Z,100256.88
2022-08-03T13:52:24.826Z,100252.59
2022-08-03T13:55:27.066Z,100244.84
2022-08-03T13:58:29.192Z,100243.31
2022-08-03T14:01:54.177Z,100237.50
2022-08-03T14:04:53.947Z,100232.22
2022-08-03T14:07:58.286Z,100239.72
2022-08-03T14:11:07.662Z,100228.53
2022-08-03T14:14:09.953Z,100233.69
2022-08-03T14:17:12.223Z,100227.19
2022-08-03T14:20:36.586Z,100231.50
2022-08-03T14:23:38.616Z,100228.28
2022-08-03T14:26:40.838Z,100220.84
2022-08-03T14:29:42.893Z,100218.94
2022-08-03T14:32:44.901Z,100208.94
2022-08-03T14:35:47.357Z,100219.66
2022-08-03T14:38:49.761Z,100218.44
2022-08-03T14:41:51.841Z,100210.00
2022-08-03T14:44:58.779Z,100210.19
2022-08-03T14:50:30.922Z,100210.41
2022-08-03T14:51:27.441Z,100209.03
2022-08-03T14:54:34.357Z,100204.81
2022-08-03T14:57:36.699Z,100206.87
2022-08-03T15:00:39.290Z,100199.00
2022-08-03T15:03:41.499Z,100205.38
2022-08-03T15:06:44.059Z,100197.28
2022-08-03T15:09:50.611Z,100202.41
2022-08-03T15:12:54.659Z,100203.31
2022-08-03T15:15:58.146Z,100195.09
2022-08-03T15:19:02.638Z,100195.72
2022-08-03T15:22:07.685Z,100201.81
2022-08-03T15:26:32.174Z,100194.78
2022-08-03T15:28:37.292Z,100183.47
2022-08-03T15:31:40.426Z,100189.50
2022-08-03T15:34:50.247Z,100190.25
2022-08-03T15:37:53.237Z,100188.88
2022-08-03T15:40:55.529Z,100185.06
2022-08-03T15:43:57.742Z,100178.75
2022-08-03T15:47:00.251Z,100185.75
2022-08-03T15:50:06.532Z,100187.13
2022-08-03T15:53:11.707Z,100187.75
2022-08-03T15:56:18.449Z,100181.84
2022-08-03T15:59:21.160Z,100182.41
2022-08-03T16:02:23.724Z,100178.16
2022-08-03T16:05:26.717Z,100185.16
2022-08-03T16:08:29.614Z,100173.56
2022-08-03T16:11:32.221Z,100172.09
2022-08-03T16:14:45.610Z,100171.41
2022-08-03T16:17:54.783Z,100175.78
2022-08-03T16:20:58.157Z,100174.06
2022-08-03T16:24:02.395Z,100171.59
2022-08-03T16:27:36.796Z,100166.88
2022-08-03T16:30:30.563Z,100174.12
2022-08-03T16:33:36.015Z,100163.25
2022-08-03T16:36:38.242Z,100168.16
2022-08-03T16:39:41.206Z,100168.09
2022-08-03T16:42:45.093Z,100166.28
2022-08-03T16:45:47.389Z,100168.91
2022-08-03T16:48:49.427Z,100165.69
2022-08-03T16:51:51.554Z,100167.97
2022-08-03T16:54:56.413Z,100159.56
2022-08-03T16:58:02.789Z,100168.41
2022-08-03T17:01:20.741Z,100169.34
2022-08-03T17:04:25.409Z,100165.69
2022-08-03T17:07:29.707Z,100172.87
2022-08-03T17:10:33.073Z,100179.16
2022-08-03T17:13:39.889Z,100178.34
2022-08-03T17:16:54.569Z,100185.97
2022-08-03T17:19:57.977Z,100177.38
2022-08-03T17:23:34.437Z,100190.03
2022-08-03T17:26:37.796Z,100185.75
2022-08-03T17:29:47.631Z,100189.16
2022-08-03T17:32:52.667Z,100190.19
2022-08-03T17:36:00.379Z,100193.94
2022-08-03T17:39:05.267Z,100193.53
2022-08-03T17:42:31.045Z,100198.94
2022-08-03T17:45:52.077Z,100194.28
2022-08-03T17:48:55.029Z,100202.84
2022-08-03T17:52:03.184Z,100201.22
2022-08-03T17:55:55.682Z,100194.25
2022-08-03T17:58:55.190Z,100190.75
2022-08-03T18:02:30.489Z,100189.56
2022-08-03T18:06:10.707Z,100198.78
2022-08-03T18:09:04.881Z,100199.09
2022-08-03T18:12:27.144Z,100200.59
2022-08-03T18:15:33.663Z,100203.47
2022-08-03T18:18:43.278Z,100206.34
2022-08-03T18:22:03.676Z,100206.16
2022-08-03T18:25:08.007Z,100218.47
2022-08-03T18:28:18.632Z,100222.09
2022-08-03T18:31:59.412Z,100225.53
2022-08-03T18:34:53.700Z,100219.87
2022-08-03T18:38:01.068Z,100220.84
2022-08-03T18:41:15.750Z,100227.19
2022-08-03T18:44:46.476Z,100230.72
2022-08-03T18:48:07.292Z,100231.62
2022-08-03T18:51:28.578Z,100233.94
2022-08-03T18:55:02.640Z,100247.69
2022-08-03T18:58:18.222Z,100240.34
2022-08-03T19:01:59.980Z,100246.41
2022-08-03T19:05:01.261Z,100246.31
2022-08-03T19:08:13.705Z,100251.06
2022-08-03T19:11:27.862Z,100247.59
2022-08-03T19:14:41.618Z,100251.72
2022-08-03T19:17:50.170Z,100257.09
2022-08-03T19:20:56.542Z,100254.06
2022-08-03T19:24:00.531Z,100257.78
2022-08-03T19:27:03.129Z,100255.97
2022-08-03T19:30:19.987Z,100261.56
2022-08-03T19:33:30.004Z,100258.91
2022-08-03T19:36:34.892Z,100261.19
2022-08-03T19:39:43.986Z,100262.44
2022-08-03T19:42:49.533Z,100266.38
2022-08-03T19:46:06.003Z,100271.13
2022-08-03T19:52:37.989Z,100270.91
2022-08-03T19:55:47.416Z,100271.75
2022-08-03T19:58:54.173Z,100280.59
2022-08-03T20:01:56.953Z,100279.56
2022-08-03T20:05:00.445Z,100284.09
2022-08-03T20:08:05.660Z,100283.88
2022-08-03T20:11:09.720Z,100286.38
2022-08-03T20:14:20.695Z,100287.22
2022-08-03T20:17:55.074Z,100288.44
2022-08-03T20:20:55.588Z,100284.13
2022-08-03T20:24:22.886Z,100283.94
2022-08-03T20:27:30.334Z,100276.56
2022-08-03T20:30:35.920Z,100284.78
2022-08-03T20:33:46.624Z,100287.06
2022-08-03T20:36:51.854Z,100282.50
2022-08-03T20:39:54.929Z,100281.69
2022-08-03T20:42:57.669Z,100286.44
2022-08-03T20:46:29.397Z,100289.06
2022-08-03T20:49:26.332Z,100278.78
2022-08-03T20:52:33.118Z,100284.94
2022-08-03T20:55:48.146Z,100275.28
2022-08-03T20:59:14.990Z,100278.16
2022-08-03T21:02:29.483Z,100274.84
2022-08-03T21:05:47.695Z,100275.28
2022-08-03T21:08:56.634Z,100272.59
2022-08-03T21:12:04.542Z,100273.41
2022-08-03T21:13:03.003Z,100274.41
2022-08-03T21:15:09.904Z,100274.44
2022-08-03T21:18:39.564Z,100286.31
2022-08-03T21:21:47.156Z,100283.03
2022-08-03T21:24:54.082Z,100283.84
2022-08-03T21:28:01.591Z,100287.97
2022-08-03T21:31:04.452Z,100290.41
2022-08-03T21:34:12.509Z,100286.91
2022-08-03T21:37:16.986Z,100293.28
2022-08-03T21:40:22.207Z,100295.97
2022-08-03T21:43:25.676Z,100295.16
2022-08-03T21:46:32.810Z,100301.25
2022-08-03T21:50:04.347Z,100297.53
2022-08-03T21:53:00.327Z,100303.03
2022-08-03T21:56:09.828Z,100302.56
2022-08-03T21:59:20.336Z,100310.34
2022-08-03T22:02:32.146Z,100308.88
2022-08-03T22:05:44.037Z,100306.16
2022-08-03T22:08:49.669Z,100314.97
2022-08-03T22:11:54.413Z,100316.34
2022-08-03T22:15:00.906Z,100316.66
2022-08-03T22:18:05.664Z,100311.91
2022-08-03T22:21:11.576Z,100320.47
2022-08-03T22:24:16.066Z,100319.84
2022-08-03T22:27:34.502Z,100317.38
2022-08-03T22:30:38.428Z,100324.94
2022-08-03T22:33:41.315Z,100318.94
2022-08-03T22:36:44.025Z,100314.19
2022-08-03T22:39:48.336Z,100317.88
2022-08-03T22:42:52.489Z,100327.25
2022-08-03T22:46:09.160Z,100321.87
2022-08-03T22:49:16.488Z,100332.72
2022-08-03T22:52:18.865Z,100330.81
2022-08-03T22:55:24.953Z,100331.91
2022-08-03T22:58:27.482Z,100328.91
2022-08-03T23:01:35.990Z,100338.44
2022-08-03T23:04:41.452Z,100326.97
2022-08-03T23:07:45.712Z,100339.25
2022-08-03T23:10:50.016Z,100337.22
2022-08-03T23:13:53.771Z,100330.69
2022-08-03T23:16:58.783Z,100340.31
2022-08-03T23:20:09.288Z,100337.66
2022-08-03T23:23:11.618Z,100349.47
2022-08-03T23:26:18.128Z,100349.91
2022-08-03T23:29:24.948Z,100343.69
2022-08-03T23:32:29.754Z,100336.38
2022-08-03T23:36:29.698Z,100344.97
2022-08-03T23:39:18.191Z,100352.25
2022-08-03T23:42:21.184Z,100352.37
2022-08-03T23:45:30.220Z,100362.56
2022-08-03T23:48:37.770Z,100362.75
2022-08-03T23:51:47.440Z,100353.31
2022-08-03T23:55:08.476Z,100360.03
2022-08-03T23:58:19.416Z,100357.91
